Time;durP1;ratioP1;P1;durP2;ratioP2;P2;SDS_P1;SDS_P2;PMS_P1;PMS_P2;Temp;Humidity;BMP_temperature;BMP_pressure;BME280_temperature;BME280_humidity;BME280_pressure;Samples;Min_cycle;Max_cycle;Signal;HPM_P1;HPM_P2
2022/09/13 00:01:29;;;;;;;2.80;2.20;;;16.30;99.90;;;;;;4882434;29;20207;-74
2022/09/13 00:03:54;;;;;;;2.33;2.07;;;16.30;99.90;;;;;;4882031;29;20716;-75
2022/09/13 00:06:21;;;;;;;3.00;2.70;;;16.30;99.90;;;;;;4896722;29;20226;-73
2022/09/13 00:08:47;;;;;;;3.77;2.30;;;16.30;99.90;;;;;;4882036;29;20184;-74
2022/09/13 00:11:22;;;;;;;2.80;2.20;;;16.30;99.90;;;;;;4882017;29;20817;-74
2022/09/13 00:13:48;;;;;;;4.13;2.50;;;16.40;99.90;;;;;;4881856;29;20415;-74
2022/09/13 00:16:16;;;;;;;2.93;2.10;;;16.30;99.90;;;;;;4882036;29;20447;-74
2022/09/13 00:18:42;;;;;;;3.30;2.27;;;16.30;99.90;;;;;;4882060;29;20867;-74
2022/09/13 00:21:12;;;;;;;2.30;2.20;;;16.40;99.90;;;;;;4880628;29;20512;-75
2022/09/13 00:23:39;;;;;;;4.20;2.70;;;16.40;99.90;;;;;;4882151;29;20779;-74
2022/09/13 00:26:07;;;;;;;2.80;2.23;;;16.40;99.90;;;;;;4881786;29;20472;-74
2022/09/13 00:28:34;;;;;;;4.67;2.67;;;16.30;99.90;;;;;;4882077;29;20425;-74
2022/09/13 00:31:05;;;;;;;3.67;2.47;;;16.20;99.90;;;;;;4882043;29;20794;-74
2022/09/13 00:33:31;;;;;;;2.37;2.17;;;16.30;99.90;;;;;;4881617;29;20439;-75
2022/09/13 00:35:58;;;;;;;6.27;2.60;;;16.30;99.90;;;;;;4881313;29;20505;-74
2022/09/13 00:38:23;;;;;;;3.23;2.40;;;16.40;99.90;;;;;;4881830;29;20476;-74
2022/09/13 00:40:49;;;;;;;2.87;2.43;;;16.40;99.90;;;;;;4881825;29;20755;-74
2022/09/13 00:43:18;;;;;;;4.97;2.40;;;16.50;99.90;;;;;;4881501;29;20406;-73
2022/09/13 00:45:45;;;;;;;3.63;2.80;;;16.50;99.90;;;;;;4895740;29;20188;-74
2022/09/13 00:48:19;;;;;;;2.80;2.40;;;16.50;99.90;;;;;;4881534;29;20421;-75
2022/09/13 00:50:50;;;;;;;2.67;2.47;;;16.50;99.90;;;;;;4881520;29;20442;-74
2022/09/13 00:53:29;;;;;;;2.53;2.33;;;16.50;99.90;;;;;;4881436;29;20415;-74
2022/09/13 00:56:20;;;;;;;4.13;3.00;;;16.50;99.90;;;;;;4880822;29;20504;-75
2022/09/13 00:58:51;;;;;;;4.13;2.83;;;16.50;99.90;;;;;;4881247;29;20416;-74
2022/09/13 01:01:19;;;;;;;9.73;2.60;;;16.50;99.90;;;;;;4881099;29;20773;-75
2022/09/13 01:03:47;;;;;;;2.87;2.50;;;16.40;99.90;;;;;;4881137;29;20428;-74
2022/09/13 01:06:22;;;;;;;2.60;2.40;;;16.40;99.90;;;;;;4881208;29;20466;-74
2022/09/13 01:08:52;;;;;;;2.50;2.30;;;16.30;99.90;;;;;;4881137;29;20449;-74
2022/09/13 01:11:43;;;;;;;2.93;2.60;;;16.30;99.90;;;;;;4880824;29;20442;-75
2022/09/13 01:14:09;;;;;;;3.20;2.90;;;16.20;99.90;;;;;;4880646;29;20435;-74
2022/09/13 01:16:35;;;;;;;3.00;2.70;;;16.20;99.90;;;;;;4881049;29;20414;-75
2022/09/13 01:19:01;;;;;;;3.87;2.40;;;16.20;99.90;;;;;;4880931;29;20410;-74
2022/09/13 01:22:00;;;;;;;6.10;2.53;;;16.20;99.90;;;;;;4880675;29;20418;-74
2022/09/13 01:24:31;;;;;;;3.47;2.70;;;16.10;99.90;;;;;;4880585;29;20184;-73
2022/09/13 01:27:02;;;;;;;2.27;2.13;;;16.10;99.90;;;;;;4880809;29;20447;-75
2022/09/13 01:30:09;;;;;;;3.27;2.87;;;16.00;99.90;;;;;;4881014;29;20517;-75
2022/09/13 01:33:01;;;;;;;6.70;2.37;;;16.00;99.90;;;;;;4880810;29;20398;-74
2022/09/13 01:35:42;;;;;;;4.03;2.60;;;16.10;99.90;;;;;;4880413;29;20746;-74
2022/09/13 01:38:14;;;;;;;2.90;2.70;;;16.10;99.90;;;;;;4880805;29;20423;-74
2022/09/13 01:40:51;;;;;;;3.50;2.50;;;16.10;99.90;;;;;;4880669;29;20482;-74
2022/09/13 01:43:35;;;;;;;2.23;2.13;;;16.00;99.90;;;;;;4880748;29;20814;-74
2022/09/13 01:46:36;;;;;;;2.80;2.37;;;16.10;99.90;;;;;;4880186;29;20471;-75
2022/09/13 01:49:10;;;;;;;2.77;2.57;;;16.10;99.90;;;;;;4889377;29;20411;-74
2022/09/13 01:51:38;;;;;;;4.50;2.77;;;16.10;99.90;;;;;;4880350;29;20463;-74
2022/09/13 01:54:13;;;;;;;3.57;2.37;;;16.20;99.90;;;;;;4880012;29;20403;-73
2022/09/13 01:56:48;;;;;;;2.90;2.03;;;16.20;99.90;;;;;;4880400;29;20410;-74
2022/09/13 01:59:44;;;;;;;3.10;2.20;;;16.20;99.90;;;;;;4880252;29;20415;-74
2022/09/13 02:02:17;;;;;;;5.23;2.63;;;16.20;99.90;;;;;;4880872;29;20418;-75
2022/09/13 02:04:50;;;;;;;2.67;2.30;;;16.20;99.90;;;;;;4879986;29;20399;-74
2022/09/13 02:07:29;;;;;;;2.40;2.13;;;16.10;99.90;;;;;;4880107;29;20450;-75
2022/09/13 02:10:01;;;;;;;3.93;2.40;;;16.10;99.90;;;;;;4879735;29;20426;-74
2022/09/13 02:12:30;;;;;;;2.90;2.70;;;16.10;99.90;;;;;;4880076;29;20762;-74
2022/09/13 02:15:13;;;;;;;4.30;2.70;;;16.20;99.90;;;;;;4879668;29;20763;-74
2022/09/13 02:17:45;;;;;;;7.60;2.90;;;16.20;99.90;;;;;;4879944;29;20439;-74
2022/09/13 02:20:35;;;;;;;6.93;2.60;;;16.30;99.90;;;;;;4879850;29;20448;-75
2022/09/13 02:23:12;;;;;;;3.60;2.77;;;16.40;99.90;;;;;;4881875;29;20414;-74
2022/09/13 02:25:39;;;;;;;2.83;2.37;;;16.40;99.90;;;;;;4879577;29;20405;-75
2022/09/13 02:28:10;;;;;;;3.10;2.70;;;16.50;99.90;;;;;;4879699;29;20410;-74
2022/09/13 02:30:41;;;;;;;2.40;2.20;;;16.50;99.90;;;;;;4879882;29;20475;-74
2022/09/13 02:33:22;;;;;;;2.73;2.53;;;16.50;99.90;;;;;;4879808;29;20444;-74
2022/09/13 02:35:54;;;;;;;3.03;2.73;;;16.50;99.90;;;;;;4879354;29;20410;-74
2022/09/13 02:38:25;;;;;;;2.77;2.57;;;16.50;99.90;;;;;;4879677;29;20801;-73
2022/09/13 02:41:13;;;;;;;3.50;2.20;;;16.50;99.90;;;;;;4879763;29;20416;-75
2022/09/13 02:43:45;;;;;;;6.37;2.87;;;16.60;99.90;;;;;;4879677;29;20443;-75
2022/09/13 02:46:25;;;;;;;2.60;2.30;;;16.70;99.90;;;;;;4879179;29;20415;-74
2022/09/13 02:49:17;;;;;;;3.57;2.70;;;16.70;99.90;;;;;;4879755;29;20424;-75
2022/09/13 02:52:01;;;;;;;5.70;2.47;;;16.70;99.90;;;;;;4893880;29;20431;-73
2022/09/13 02:54:58;;;;;;;4.50;2.87;;;16.70;99.90;;;;;;4879146;29;20509;-75
2022/09/13 02:57:32;;;;;;;3.53;2.17;;;16.70;99.90;;;;;;4879376;29;20415;-74
2022/09/13 02:59:59;;;;;;;3.87;2.40;;;16.80;99.90;;;;;;4879474;29;20414;-74
2022/09/13 03:02:31;;;;;;;1.87;1.77;;;16.80;99.90;;;;;;4879387;29;20395;-73
2022/09/13 03:04:59;;;;;;;3.00;2.03;;;16.80;99.90;;;;;;4879124;29;20434;-75
2022/09/13 03:07:24;;;;;;;4.53;2.23;;;16.90;99.90;;;;;;4879212;29;20436;-74
2022/09/13 03:09:54;;;;;;;2.37;2.17;;;16.90;99.90;;;;;;4893615;29;20449;-73
2022/09/13 03:12:41;;;;;;;4.60;2.17;;;17.00;99.90;;;;;;4879189;29;20175;-72
2022/09/13 03:15:20;;;;;;;2.30;1.77;;;17.00;99.90;;;;;;4879052;29;20394;-72
2022/09/13 03:17:59;;;;;;;2.93;2.60;;;17.00;99.90;;;;;;4879289;29;20413;-72
2022/09/13 03:20:57;;;;;;;3.03;2.77;;;17.00;99.90;;;;;;4880633;29;20402;-72
2022/09/13 03:23:49;;;;;;;6.33;2.40;;;17.10;99.90;;;;;;4883197;29;20431;-73
2022/09/13 03:26:34;;;;;;;2.90;2.63;;;17.10;99.90;;;;;;4882926;29;20467;-73
2022/09/13 03:29:17;;;;;;;2.90;2.27;;;17.20;99.90;;;;;;4881567;29;20953;-72
2022/09/13 03:32:01;;;;;;;5.53;2.20;;;17.20;99.90;;;;;;4883044;29;20507;-72
2022/09/13 03:34:37;;;;;;;2.50;2.00;;;17.20;99.90;;;;;;4882438;29;20417;-73
2022/09/13 03:37:15;;;;;;;3.83;2.10;;;17.20;99.90;;;;;;4882788;29;20406;-73
2022/09/13 03:39:46;;;;;;;2.00;1.90;;;17.20;99.90;;;;;;4897105;29;20523;-73
2022/09/13 03:42:20;;;;;;;2.53;2.33;;;17.20;99.90;;;;;;4882949;29;20520;-73
2022/09/13 03:44:49;;;;;;;2.93;2.30;;;17.20;99.90;;;;;;4882388;29;20447;-72
2022/09/13 03:47:16;;;;;;;3.27;2.30;;;17.30;99.90;;;;;;4882509;29;20536;-72
2022/09/13 03:49:43;;;;;;;3.33;2.40;;;17.30;99.90;;;;;;4882533;29;20464;-73
2022/09/13 03:52:10;;;;;;;2.90;2.30;;;17.30;99.90;;;;;;4882539;29;20511;-73
2022/09/13 03:54:37;;;;;;;2.90;2.33;;;17.30;99.90;;;;;;4882040;29;20395;-74
2022/09/13 03:57:20;;;;;;;2.93;2.63;;;17.30;99.90;;;;;;4882225;29;20432;-73
2022/09/13 03:59:48;;;;;;;3.40;2.70;;;17.30;99.90;;;;;;4882585;29;20763;-73
2022/09/13 04:02:15;;;;;;;2.80;2.53;;;17.30;99.90;;;;;;4882425;29;20846;-72
2022/09/13 04:04:42;;;;;;;3.50;2.43;;;17.30;99.90;;;;;;4881945;29;20788;-73
2022/09/13 04:07:09;;;;;;;3.50;2.30;;;17.30;99.90;;;;;;4882310;29;20808;-73
2022/09/13 04:09:35;;;;;;;3.50;2.60;;;17.30;99.90;;;;;;4882142;29;20451;-71
2022/09/13 04:12:01;;;;;;;3.23;2.93;;;17.30;99.90;;;;;;4882058;29;20483;-73
2022/09/13 04:14:27;;;;;;;3.20;2.17;;;17.40;99.90;;;;;;4881786;29;20176;-73
2022/09/13 04:16:54;;;;;;;2.60;2.20;;;17.20;99.90;;;;;;4881795;29;20975;-73
2022/09/13 04:19:20;;;;;;;3.40;2.40;;;17.20;99.90;;;;;;4882013;29;20524;-73
2022/09/13 04:21:48;;;;;;;2.67;2.10;;;17.20;99.90;;;;;;4881838;29;20420;-73
2022/09/13 04:24:14;;;;;;;3.13;2.80;;;17.20;99.90;;;;;;4881621;29;20556;-74
2022/09/13 04:26:39;;;;;;;2.83;2.43;;;17.30;99.90;;;;;;4881894;29;20426;-73
2022/09/13 04:29:05;;;;;;;2.67;2.23;;;17.30;99.90;;;;;;4881647;29;20934;-73
2022/09/13 04:31:31;;;;;;;2.67;2.37;;;17.20;99.90;;;;;;4880589;29;20306;-73
2022/09/13 04:33:57;;;;;;;5.20;2.77;;;17.20;99.90;;;;;;4895983;29;20298;-73
2022/09/13 04:36:23;;;;;;;3.03;2.70;;;17.10;99.90;;;;;;4881750;29;20215;-73
2022/09/13 04:38:49;;;;;;;6.20;2.83;;;17.10;99.90;;;;;;4881707;29;20454;-73
2022/09/13 04:41:16;;;;;;;5.43;3.27;;;17.10;99.90;;;;;;4881620;29;20661;-72
2022/09/13 04:43:41;;;;;;;2.30;2.10;;;17.10;99.90;;;;;;4881503;29;20184;-73
2022/09/13 04:46:07;;;;;;;4.63;2.40;;;17.00;99.90;;;;;;4889520;29;20461;-73
2022/09/13 04:48:33;;;;;;;3.30;2.40;;;17.10;99.90;;;;;;4900413;29;20189;-73
2022/09/13 04:51:04;;;;;;;4.70;2.47;;;17.00;99.90;;;;;;4900184;29;20676;-73
2022/09/13 04:53:31;;;;;;;2.50;2.30;;;17.00;99.90;;;;;;4900206;29;20207;-72
2022/09/13 04:56:04;;;;;;;3.13;2.63;;;17.00;99.90;;;;;;4899840;29;20578;-73
2022/09/13 04:58:30;;;;;;;3.20;2.60;;;17.10;99.90;;;;;;4900037;29;20402;-74
2022/09/13 05:01:04;;;;;;;3.60;2.90;;;17.10;99.90;;;;;;4898820;29;20433;-73
2022/09/13 05:03:31;;;;;;;3.20;2.90;;;17.10;99.90;;;;;;4899865;29;20492;-72
2022/09/13 05:06:11;;;;;;;3.90;3.03;;;17.10;99.90;;;;;;4899569;29;20523;-73
2022/09/13 05:08:37;;;;;;;3.70;2.93;;;17.10;99.90;;;;;;4899830;29;20436;-73
2022/09/13 05:11:04;;;;;;;3.07;2.53;;;17.10;99.90;;;;;;4899525;29;20980;-75
2022/09/13 05:13:30;;;;;;;4.40;2.53;;;17.10;99.90;;;;;;4899654;29;20271;-77
2022/09/13 05:15:57;;;;;;;3.27;2.90;;;17.10;99.90;;;;;;4899331;29;20433;-76
2022/09/13 05:18:28;;;;;;;6.20;2.70;;;17.10;99.90;;;;;;4899594;29;20260;-75
2022/09/13 05:20:54;;;;;;;2.80;2.50;;;17.10;99.90;;;;;;4897735;29;20426;-76
2022/09/13 05:23:21;;;;;;;3.27;2.97;;;17.20;99.90;;;;;;4895422;29;20438;-76
2022/09/13 05:25:55;;;;;;;3.00;2.70;;;17.30;99.90;;;;;;4899090;29;20414;-77
2022/09/13 05:28:21;;;;;;;3.20;2.70;;;17.30;99.90;;;;;;4899367;29;20507;-76
2022/09/13 05:31:01;;;;;;;2.83;2.37;;;17.40;99.90;;;;;;4898194;29;20456;-75
2022/09/13 05:33:29;;;;;;;2.83;2.63;;;17.40;99.90;;;;;;4899257;29;20394;-75
2022/09/13 05:35:54;;;;;;;3.37;3.00;;;17.50;99.90;;;;;;4897872;29;20467;-76
2022/09/13 05:38:20;;;;;;;2.77;2.53;;;17.50;99.90;;;;;;4899334;29;21017;-76
2022/09/13 05:40:47;;;;;;;3.67;2.60;;;17.40;99.90;;;;;;4899377;29;20536;-76
2022/09/13 05:43:13;;;;;;;3.10;2.27;;;17.50;99.90;;;;;;4898990;29;20924;-76
2022/09/13 05:45:40;;;;;;;4.10;3.37;;;17.50;99.90;;;;;;4897597;29;20408;-76
2022/09/13 05:48:06;;;;;;;8.30;2.63;;;17.60;99.90;;;;;;4898053;29;20435;-74
2022/09/13 05:50:36;;;;;;;3.20;2.90;;;17.60;99.90;;;;;;4899159;29;20466;-74
2022/09/13 05:53:01;;;;;;;3.13;2.83;;;17.70;99.90;;;;;;4899098;29;20183;-75
2022/09/13 05:55:27;;;;;;;3.43;3.13;;;17.70;99.90;;;;;;4898546;29;20783;-74
2022/09/13 05:57:52;;;;;;;3.40;3.10;;;17.80;99.90;;;;;;4897670;29;20219;-73
2022/09/13 06:00:18;;;;;;;4.53;3.00;;;17.90;99.90;;;;;;4899119;29;20187;-72
2022/09/13 06:02:44;;;;;;;3.20;2.90;;;17.90;99.90;;;;;;4898870;29;20250;-74
2022/09/13 06:05:10;;;;;;;4.40;3.30;;;17.80;99.90;;;;;;4898688;29;20202;-74
2022/09/13 06:07:40;;;;;;;8.67;3.20;;;17.60;99.90;;;;;;4898701;29;20207;-73
2022/09/13 06:10:06;;;;;;;2.90;2.70;;;17.70;99.90;;;;;;4898642;29;21163;-73
2022/09/13 06:12:32;;;;;;;3.97;2.57;;;17.90;99.90;;;;;;4897578;29;20557;-74
2022/09/13 06:14:57;;;;;;;2.90;2.60;;;18.00;99.90;;;;;;4898255;29;20430;-74
2022/09/13 06:17:23;;;;;;;5.00;2.60;;;18.00;99.90;;;;;;4898590;29;20209;-74
2022/09/13 06:19:49;;;;;;;4.40;2.50;;;17.90;99.90;;;;;;4897168;29;20703;-74
2022/09/13 06:22:14;;;;;;;3.87;2.40;;;17.80;99.90;;;;;;4897280;29;20558;-74
2022/09/13 06:24:40;;;;;;;5.83;2.60;;;17.90;99.90;;;;;;4898215;29;20788;-74
2022/09/13 06:27:05;;;;;;;5.17;2.90;;;17.90;99.90;;;;;;4897207;29;20229;-72
2022/09/13 06:29:31;;;;;;;3.07;2.77;;;18.10;99.90;;;;;;4898373;29;20183;-75
2022/09/13 06:31:57;;;;;;;3.00;2.67;;;18.10;99.90;;;;;;4898275;29;20300;-74
2022/09/13 06:34:23;;;;;;;4.80;2.60;;;18.20;99.90;;;;;;4896802;29;20969;-74
2022/09/13 06:36:49;;;;;;;3.60;2.60;;;18.30;99.90;;;;;;4898396;29;20203;-73
2022/09/13 06:39:14;;;;;;;3.13;2.10;;;18.10;99.90;;;;;;4897313;29;20227;-74
2022/09/13 06:41:40;;;;;;;2.93;2.63;;;18.10;99.90;;;;;;4898421;29;20191;-72
2022/09/13 06:44:05;;;;;;;4.60;2.30;;;18.20;99.90;;;;;;4897792;29;20519;-73
2022/09/13 06:46:34;;;;;;;8.90;2.60;;;18.30;99.90;;;;;;4898088;29;20194;-74
2022/09/13 06:49:04;;;;;;;4.60;2.23;;;18.40;99.90;;;;;;4898229;29;20234;-74
2022/09/13 06:51:31;;;;;;;3.43;2.03;;;18.50;99.90;;;;;;4898169;29;20952;-72
2022/09/13 06:53:57;;;;;;;2.37;2.17;;;18.60;99.90;;;;;;4897677;29;20419;-73
2022/09/13 06:56:29;;;;;;;2.67;2.43;;;18.70;99.90;;;;;;4897762;29;20439;-75
2022/09/13 06:59:04;;;;;;;3.30;2.00;;;18.80;99.90;;;;;;4898228;29;20411;-75
2022/09/13 07:01:32;;;;;;;3.53;2.40;;;18.90;99.90;;;;;;4898112;29;20422;-73
2022/09/13 07:04:06;;;;;;;4.20;2.20;;;19.00;99.90;;;;;;4897773;29;20411;-73
2022/09/13 07:06:34;;;;;;;2.90;2.60;;;19.10;99.90;;;;;;4897932;29;20447;-73
2022/09/13 07:09:01;;;;;;;3.10;2.43;;;19.20;99.90;;;;;;4897966;29;20566;-74
2022/09/13 07:11:38;;;;;;;2.40;2.20;;;19.50;99.90;;;;;;4897902;29;20462;-75
2022/09/13 07:14:05;;;;;;;2.43;2.23;;;19.40;99.90;;;;;;4897433;29;20419;-74
2022/09/13 07:16:33;;;;;;;3.53;2.10;;;19.60;99.90;;;;;;4897710;29;20438;-73
2022/09/13 07:19:07;;;;;;;2.30;2.10;;;19.80;99.90;;;;;;4897890;29;20423;-73
2022/09/13 07:21:36;;;;;;;3.00;2.03;;;19.90;99.90;;;;;;4897776;29;20817;-72
2022/09/13 07:24:03;;;;;;;1.80;1.70;;;19.90;99.90;;;;;;4897479;29;20451;-74
2022/09/13 07:26:30;;;;;;;2.70;2.40;;;20.00;99.90;;;;;;4897678;29;20461;-74
2022/09/13 07:28:58;;;;;;;6.03;2.33;;;20.00;99.90;;;;;;4896368;29;20485;-73
2022/09/13 07:31:29;;;;;;;2.57;1.93;;;20.30;99.90;;;;;;4897659;29;20835;-72
2022/09/13 07:34:02;;;;;;;3.30;1.83;;;20.40;99.90;;;;;;4897470;29;20423;-76
2022/09/13 07:36:29;;;;;;;2.77;2.20;;;20.60;99.90;;;;;;4897620;29;20435;-73
2022/09/13 07:38:56;;;;;;;3.67;1.90;;;20.70;99.90;;;;;;4897691;29;20419;-72
2022/09/13 07:41:23;;;;;;;2.90;1.87;;;21.00;99.90;;;;;;4897755;29;20419;-72
2022/09/13 07:43:50;;;;;;;4.97;1.90;;;21.10;99.90;;;;;;4897463;29;20407;-73
2022/09/13 07:46:22;;;;;;;2.60;2.13;;;21.30;99.90;;;;;;4897656;29;20503;-74
2022/09/13 07:48:51;;;;;;;2.03;1.70;;;21.30;99.90;;;;;;4897883;29;20423;-73
2022/09/13 07:51:22;;;;;;;2.40;1.93;;;21.30;99.90;;;;;;4897761;29;20526;-73
2022/09/13 07:53:50;;;;;;;2.93;1.90;;;21.50;99.90;;;;;;4897441;29;20403;-74
2022/09/13 07:56:19;;;;;;;3.13;1.77;;;21.40;99.90;;;;;;4897482;29;20486;-73
2022/09/13 07:58:47;;;;;;;5.17;1.40;;;21.50;99.90;;;;;;4897359;29;20900;-71
2022/09/13 08:01:24;;;;;;;4.07;1.53;;;21.80;99.90;;;;;;4897622;29;20442;-74
2022/09/13 08:04:01;;;;;;;2.70;1.80;;;21.80;99.90;;;;;;4897185;29;20418;-74
2022/09/13 08:06:28;;;;;;;3.30;1.40;;;21.90;99.90;;;;;;4898847;29;20437;-74
2022/09/13 08:08:55;;;;;;;2.13;1.50;;;21.90;99.90;;;;;;4900757;29;20854;-73
2022/09/13 08:11:32;;;;;;;2.67;1.50;;;22.20;99.90;;;;;;4900816;29;20573;-73
2022/09/13 08:13:58;;;;;;;2.43;1.33;;;22.30;99.90;;;;;;4900489;29;20818;-74
2022/09/13 08:16:25;;;;;;;11.17;2.07;;;22.10;99.90;;;;;;4900619;29;20442;-73
2022/09/13 08:18:53;;;;;;;2.90;2.00;;;22.20;99.90;;;;;;4900446;29;20415;-73
2022/09/13 08:21:19;;;;;;;3.13;1.90;;;22.30;99.90;;;;;;4900583;29;20427;-73
2022/09/13 08:23:45;;;;;;;4.73;1.80;;;22.20;99.90;;;;;;4900408;29;20454;-73
2022/09/13 08:26:12;;;;;;;4.50;1.63;;;22.50;99.90;;;;;;4900596;29;20439;-74
2022/09/13 08:28:41;;;;;;;2.23;1.83;;;22.80;99.90;;;;;;4900306;29;20495;-74
2022/09/13 08:31:10;;;;;;;3.53;1.63;;;23.00;99.90;;;;;;4900353;29;20879;-73
2022/09/13 08:33:36;;;;;;;3.80;1.53;;;23.00;99.90;;;;;;4900527;29;20411;-73
2022/09/13 08:36:03;;;;;;;2.00;1.80;;;22.70;99.90;;;;;;4898959;29;20533;-74
2022/09/13 08:38:30;;;;;;;6.90;1.97;;;22.60;99.90;;;;;;4900547;29;20423;-74
2022/09/13 08:40:58;;;;;;;5.37;2.10;;;22.60;99.90;;;;;;4899099;29;20991;-73
2022/09/13 08:43:43;;;;;;;4.60;1.80;;;22.50;99.90;;;;;;4900281;29;20506;-77
2022/09/13 08:46:23;;;;;;;3.17;1.40;;;22.60;99.90;;;;;;4898590;29;20454;-78
2022/09/13 08:48:53;;;;;;;6.23;2.10;;;22.60;99.90;;;;;;4900149;29;20422;-77
2022/09/13 08:52:01;;;;;;;3.30;1.93;;;23.20;99.90;;;;;;4900021;29;20558;-78
2022/09/13 08:54:27;;;;;;;4.23;1.90;;;23.70;99.90;;;;;;4844930;29;20795;-77
2022/09/13 08:57:25;;;;;;;3.03;1.60;;;23.20;99.90;;;;;;4860546;29;20449;-75
2022/09/13 09:00:11;;;;;;;2.77;1.80;;;23.70;99.90;;;;;;4888759;29;20593;-77
2022/09/13 09:03:05;;;;;;;3.27;1.87;;;23.70;99.90;;;;;;4900182;29;20415;-77
2022/09/13 09:05:36;;;;;;;4.20;1.63;;;24.00;99.90;;;;;;4899671;29;20466;-72
2022/09/13 09:08:18;;;;;;;4.57;1.90;;;24.30;99.90;;;;;;4900028;29;20445;-73
2022/09/13 09:10:47;;;;;;;2.63;1.83;;;24.30;99.90;;;;;;4899746;29;20466;-72
2022/09/13 09:13:25;;;;;;;4.13;1.70;;;24.10;99.90;;;;;;4899573;29;20427;-71
2022/09/13 09:16:10;;;;;;;4.27;2.20;;;24.00;99.90;;;;;;4899354;29;20427;-73
2022/09/13 09:18:40;;;;;;;3.10;2.47;;;23.90;99.90;;;;;;4897507;29;20438;-73
2022/09/13 09:21:12;;;;;;;5.37;2.30;;;24.10;99.90;;;;;;4899463;29;20424;-71
2022/09/13 09:23:50;;;;;;;2.97;2.27;;;23.80;99.90;;;;;;4899553;29;20423;-73
2022/09/13 09:26:34;;;;;;;6.07;2.40;;;23.80;99.90;;;;;;4899445;29;20447;-72
2022/09/13 09:29:09;;;;;;;2.57;2.03;;;24.20;99.90;;;;;;4899305;29;20443;-73
2022/09/13 09:31:51;;;;;;;5.53;2.27;;;23.60;99.90;;;;;;4899338;29;20506;-72
2022/09/13 09:34:25;;;;;;;3.13;2.47;;;23.60;99.90;;;;;;4898387;29;20458;-73
2022/09/13 09:37:07;;;;;;;2.37;1.97;;;23.60;99.90;;;;;;4896001;29;20872;-73
2022/09/13 09:39:37;;;;;;;7.47;2.07;;;24.20;99.90;;;;;;4896380;29;20427;-72
2022/09/13 09:42:13;;;;;;;4.83;2.20;;;24.40;99.90;;;;;;4897903;29;20454;-72
2022/09/13 09:44:42;;;;;;;5.10;1.77;;;24.70;99.90;;;;;;4897218;29;21201;-73
2022/09/13 09:47:21;;;;;;;6.73;1.60;;;25.00;99.90;;;;;;4895701;29;20439;-75
2022/09/13 09:50:08;;;;;;;1.80;1.40;;;25.20;99.90;;;;;;4895680;29;20490;-72
2022/09/13 09:52:57;;;;;;;1.90;1.70;;;25.40;99.90;;;;;;4897704;29;20462;-75
2022/09/13 09:55:27;;;;;;;3.43;1.67;;;25.30;99.90;;;;;;4896633;29;20423;-73
2022/09/13 09:57:53;;;;;;;2.93;1.70;;;25.30;99.90;;;;;;4897199;29;20510;-74
2022/09/13 10:00:20;;;;;;;2.67;2.47;;;26.10;99.90;;;;;;4896623;29;20517;-73
2022/09/13 10:02:48;;;;;;;5.60;2.17;;;26.40;99.90;;;;;;4896334;29;20194;-73
2022/09/13 10:05:19;;;;;;;2.23;2.13;;;26.40;99.90;;;;;;4897128;29;20423;-74
2022/09/13 10:07:56;;;;;;;4.50;2.97;;;26.50;99.90;;;;;;4895437;29;20975;-73
2022/09/13 10:10:52;;;;;;;4.23;2.73;;;27.00;99.90;;;;;;4896536;29;20466;-74
2022/09/13 10:13:21;;;;;;;4.60;3.07;;;27.10;99.90;;;;;;4897125;29;20439;-74
2022/09/13 10:16:04;;;;;;;5.70;2.67;;;27.60;99.90;;;;;;4895810;29;20523;-72
2022/09/13 10:18:34;;;;;;;4.57;2.43;;;27.60;99.90;;;;;;4897318;29;20423;-73
2022/09/13 10:21:22;;;;;;;3.83;3.03;;;27.10;99.90;;;;;;4896930;29;20427;-73
2022/09/13 10:23:52;;;;;;;4.87;3.00;;;26.60;99.90;;;;;;4894528;29;20960;-73
2022/09/13 10:26:23;;;;;;;9.43;3.03;;;26.30;99.90;;;;;;4895784;29;20453;-73
2022/09/13 10:29:01;;;;;;;3.47;2.50;;;26.20;99.90;;;;;;4895310;29;20459;-73
2022/09/13 10:31:32;;;;;;;5.63;2.90;;;25.50;99.90;;;;;;4895018;29;20467;-72
2022/09/13 10:34:04;;;;;;;4.80;2.63;;;25.80;99.90;;;;;;4896388;29;20825;-72
2022/09/13 10:36:33;;;;;;;3.00;2.30;;;25.50;99.90;;;;;;4896835;29;20446;-73
2022/09/13 10:39:07;;;;;;;4.73;1.83;;;26.10;99.90;;;;;;4895700;29;20924;-71
2022/09/13 10:41:40;;;;;;;5.20;1.50;;;26.80;99.90;;;;;;4896755;29;20482;-73
2022/09/13 10:44:30;;;;;;;3.83;2.40;;;27.20;99.90;;;;;;4896063;29;20467;-74
2022/09/13 10:46:59;;;;;;;6.00;2.60;;;27.30;99.90;;;;;;4895364;29;20443;-73
2022/09/13 10:49:41;;;;;;;4.87;2.37;;;27.50;99.90;;;;;;4895901;29;20518;-74
2022/09/13 10:52:27;;;;;;;5.07;2.27;;;27.10;99.90;;;;;;4895465;29;20447;-71
2022/09/13 10:54:54;;;;;;;3.97;1.63;;;27.10;99.90;;;;;;4895772;29;20419;-73
2022/09/13 10:57:35;;;;;;;2.03;1.80;;;27.10;99.90;;;;;;4879383;29;20438;-72
2022/09/13 11:00:04;;;;;;;3.73;2.00;;;26.80;99.90;;;;;;4896584;29;20433;-73
2022/09/13 11:03:04;;;;;;;4.10;2.13;;;26.80;99.90;;;;;;4896619;29;20423;-75
2022/09/13 11:05:43;;;;;;;6.93;1.93;;;26.90;99.90;;;;;;4897712;29;20415;-73
2022/09/13 11:08:28;;;;;;;5.73;3.07;;;27.20;99.90;;;;;;4898008;29;20411;-75
2022/09/13 11:11:04;;;;;;;4.07;2.30;;;26.90;99.90;;;;;;4897999;29;20810;-73
2022/09/13 11:14:02;;;;;;;3.90;2.23;;;27.20;99.90;;;;;;4898071;29;20776;-73
2022/09/13 11:16:39;;;;;;;3.30;1.97;;;27.40;99.90;;;;;;4896873;29;20435;-76
2022/09/13 11:19:29;;;;;;;6.73;1.90;;;27.40;99.90;;;;;;4897765;29;20415;-75
2022/09/13 11:22:19;;;;;;;4.20;1.87;;;27.70;99.90;;;;;;4897722;29;20820;-74
2022/09/13 11:24:56;;;;;;;4.73;2.40;;;27.90;99.90;;;;;;4897589;29;20407;-75
2022/09/13 11:27:24;;;;;;;7.07;1.90;;;28.00;99.90;;;;;;4897756;29;20463;-74
2022/09/13 11:30:14;;;;;;;3.47;1.23;;;28.40;99.90;;;;;;4897802;29;21012;-75
2022/09/13 11:33:22;;;;;;;3.63;1.80;;;29.20;99.90;;;;;;4898119;29;20471;-75
2022/09/13 11:36:15;;;;;;;2.73;1.60;;;29.60;99.90;;;;;;4896485;29;20453;-74
2022/09/13 11:38:57;;;;;;;2.30;1.57;;;29.40;99.90;;;;;;4897944;29;20410;-74
2022/09/13 11:41:44;;;;;;;2.57;1.70;;;30.20;99.90;;;;;;4899456;29;20422;-74
2022/09/13 11:44:22;;;;;;;4.17;1.83;;;30.40;99.90;;;;;;4901044;29;20411;-73
2022/09/13 11:47:05;;;;;;;5.63;1.63;;;30.60;99.90;;;;;;4901195;29;20441;-76
2022/09/13 11:50:00;;;;;;;2.17;1.70;;;30.40;99.90;;;;;;4901237;29;20489;-74
2022/09/13 11:52:51;;;;;;;2.60;1.50;;;29.90;99.90;;;;;;4901241;29;20411;-75
2022/09/13 11:55:32;;;;;;;2.67;1.60;;;28.80;99.90;;;;;;4901252;29;20422;-75
2022/09/13 11:58:03;;;;;;;2.33;1.80;;;28.90;99.90;;;;;;4901384;29;20406;-75
2022/09/13 12:00:39;;;;;;;4.33;1.60;;;29.70;99.90;;;;;;4901238;29;20419;-75
2022/09/13 12:03:24;;;;;;;3.80;1.77;;;29.60;99.90;;;;;;4884377;29;20429;-74
2022/09/13 12:05:55;;;;;;;4.13;1.90;;;29.30;99.90;;;;;;4900718;29;20443;-75
2022/09/13 12:08:36;;;;;;;1.67;1.40;;;29.70;99.90;;;;;;4900920;29;20410;-74
2022/09/13 12:11:14;;;;;;;6.50;2.17;;;29.60;99.90;;;;;;4900743;29;20502;-74
2022/09/13 12:13:50;;;;;;;4.00;1.83;;;29.00;99.90;;;;;;4900739;29;20411;-75
2022/09/13 12:16:24;;;;;;;2.60;1.93;;;29.20;99.90;;;;;;4900682;29;20786;-74
2022/09/13 12:18:56;;;;;;;4.27;1.30;;;29.40;99.90;;;;;;4900796;29;20415;-74
2022/09/13 12:21:30;;;;;;;2.07;1.57;;;29.60;99.90;;;;;;4900836;29;20442;-75
2022/09/13 12:23:59;;;;;;;4.00;1.80;;;29.80;99.90;;;;;;4900302;29;20415;-74
2022/09/13 12:26:44;;;;;;;7.23;1.87;;;29.70;99.90;;;;;;4900200;29;20478;-76
2022/09/13 12:29:12;;;;;;;2.77;1.40;;;30.10;99.90;;;;;;4900473;29;20434;-75
2022/09/13 12:31:38;;;;;;;1.90;1.70;;;30.50;99.90;;;;;;4900509;29;20459;-74
2022/09/13 12:34:12;;;;;;;4.50;1.53;;;30.80;99.90;;;;;;4899142;29;20442;-75
2022/09/13 12:36:57;;;;;;;3.20;1.77;;;31.30;99.90;;;;;;4900212;29;20190;-74
2022/09/13 12:39:55;;;;;;;4.20;2.23;;;31.90;99.90;;;;;;4900581;29;20909;-75
2022/09/13 12:42:29;;;;;;;4.53;1.70;;;31.70;99.90;;;;;;4900356;29;20414;-76
2022/09/13 12:45:15;;;;;;;6.07;2.13;;;31.30;99.90;;;;;;4900295;29;20434;-76
2022/09/13 12:48:09;;;;;;;4.43;2.20;;;30.90;99.90;;;;;;4900449;29;20431;-75
2022/09/13 12:51:00;;;;;;;3.20;1.80;;;30.90;99.90;;;;;;4900199;29;20459;-76
2022/09/13 12:53:57;;;;;;;4.00;1.70;;;31.00;99.90;;;;;;4899268;29;20407;-76
2022/09/13 12:56:51;;;;;;;4.67;1.70;;;31.30;99.90;;;;;;4899928;29;20427;-76
2022/09/13 12:59:34;;;;;;;1.40;1.30;;;30.90;99.90;;;;;;4898882;29;20429;-76
2022/09/13 13:02:00;;;;;;;4.93;2.00;;;31.00;99.90;;;;;;4900076;29;20429;-75
2022/09/13 13:04:36;;;;;;;4.87;1.47;;;31.40;99.90;;;;;;4899636;29;20430;-75
2022/09/13 13:07:17;;;;;;;1.43;1.27;;;31.40;99.90;;;;;;4899843;29;20437;-75
2022/09/13 13:09:52;;;;;;;2.27;1.40;;;31.90;99.90;;;;;;4900023;29;20415;-74
2022/09/13 13:12:31;;;;;;;7.40;2.10;;;31.70;99.90;;;;;;4900011;29;20422;-75
2022/09/13 13:15:04;;;;;;;2.20;1.63;;;31.50;99.90;;;;;;4898306;29;20423;-74
2022/09/13 13:17:46;;;;;;;4.07;2.00;;;31.30;99.90;;;;;;4899756;29;20447;-76
2022/09/13 13:20:53;;;;;;;3.20;1.60;;;31.30;99.90;;;;;;4899823;29;20790;-76
2022/09/13 13:23:33;;;;;;;3.47;1.60;;;31.30;99.90;;;;;;4860196;29;20489;-75